createdAt,value
2023-04-13T00:06:50.338Z,97491.11
2023-04-13T00:17:16.214Z,97480.52
2023-04-13T00:27:45.075Z,97475.41
2023-04-13T00:38:11.769Z,97476.64
2023-04-13T00:48:38.198Z,97481.16
2023-04-13T00:59:04.816Z,97482.80
2023-04-13T01:09:37.813Z,97483.89
2023-04-13T01:20:10.647Z,97483.34
2023-04-13T01:30:39.044Z,97487.64
2023-04-13T01:41:04.048Z,97495.39
2023-04-13T01:51:34.513Z,97492.23
2023-04-13T02:02:00.358Z,97487.27
2023-04-13T02:12:26.476Z,97485.14
2023-04-13T02:22:52.163Z,97479.87
2023-04-13T02:33:19.343Z,97477.20
2023-04-13T02:43:45.328Z,97474.77
2023-04-13T02:54:12.506Z,97466.16
2023-04-13T03:04:38.479Z,97455.70
2023-04-13T03:15:05.022Z,97463.27
2023-04-13T03:25:33.221Z,97469.66
2023-04-13T03:35:59.856Z,97473.78
2023-04-13T03:46:25.627Z,97476.52
2023-04-13T03:56:51.614Z,97470.48
2023-04-13T04:07:17.621Z,97472.11
2023-04-13T04:17:52.393Z,97469.73
2023-04-13T04:28:18.503Z,97470.70
2023-04-13T04:38:44.426Z,97466.50
2023-04-13T04:49:10.260Z,97477.63
2023-04-13T04:59:35.763Z,97477.09
2023-04-13T05:10:01.832Z,97483.11
2023-04-13T05:20:28.135Z,97483.91
2023-04-13T05:30:54.916Z,97493.60
2023-04-13T05:41:20.600Z,97490.77
2023-04-13T05:51:47.959Z,97490.98
2023-04-13T06:02:14.467Z,97495.14
2023-04-13T06:12:41.402Z,97497.70
2023-04-13T06:23:07.672Z,97499.42
2023-04-13T06:33:33.964Z,97502.94
2023-04-13T06:44:00.254Z,97504.43
2023-04-13T06:54:26.180Z,97510.73
2023-04-13T07:04:52.341Z,97499.75
2023-04-13T07:15:18.251Z,97499.77
2023-04-13T07:25:44.883Z,97502.14
2023-04-13T07:36:12.038Z,97502.84
2023-04-13T07:46:39.252Z,97497.88
2023-04-13T07:57:05.692Z,97497.02
2023-04-13T08:07:32.190Z,97493.25
2023-04-13T08:17:58.835Z,97498.10
2023-04-13T08:28:24.620Z,97495.55
2023-04-13T08:38:51.173Z,97498.73
2023-04-13T08:49:17.518Z,97503.12
2023-04-13T08:59:45.034Z,97513.08
2023-04-13T09:10:10.803Z,97514.31
2023-04-13T09:20:37.995Z,97509.14
2023-04-13T09:31:07.918Z,97514.02
2023-04-13T09:41:36.674Z,97502.65
2023-04-13T09:52:02.678Z,97498.31
2023-04-13T10:02:29.296Z,97498.45
2023-04-13T10:12:59.938Z,97495.38
2023-04-13T10:23:26.126Z,97487.52
2023-04-13T10:33:52.483Z,97475.29
2023-04-13T10:44:18.058Z,97473.86
2023-04-13T10:54:45.622Z,97470.09
2023-04-13T11:05:17.962Z,97466.85
2023-04-13T11:15:43.707Z,97469.53
2023-04-13T11:26:09.712Z,97472.39
2023-04-13T11:36:35.530Z,97472.58
2023-04-13T11:47:02.902Z,97480.91
2023-04-13T11:57:29.620Z,97471.21
2023-04-13T12:07:57.505Z,97474.73
2023-04-13T12:18:31.043Z,97477.67
2023-04-13T12:29:03.898Z,97491.50
2023-04-13T12:39:29.859Z,97492.10
2023-04-13T12:49:56.431Z,97501.75
2023-04-13T13:00:23.772Z,97510.86
2023-04-13T13:10:49.574Z,97512.73
2023-04-13T13:21:15.380Z,97526.65
2023-04-13T13:31:42.468Z,97531.23
2023-04-13T13:42:08.917Z,97547.05
2023-04-13T13:52:34.989Z,97547.27
2023-04-13T14:03:01.933Z,97557.58
2023-04-13T14:13:27.719Z,97571.80
2023-04-13T14:23:53.258Z,97583.58
2023-04-13T14:34:19.005Z,97600.30
2023-04-13T14:44:44.317Z,97606.95
2023-04-13T14:55:12.159Z,97605.89
2023-04-13T15:05:41.810Z,97616.02
2023-04-13T15:16:08.598Z,97622.23
2023-04-13T15:26:38.658Z,97626.55
2023-04-13T15:37:04.021Z,97635.59
2023-04-13T15:47:30.311Z,97641.77
2023-04-13T15:57:57.470Z,97654.36
2023-04-13T16:08:23.144Z,97667.46
2023-04-13T16:18:49.337Z,97675.23
2023-04-13T16:29:15.336Z,97679.14
2023-04-13T16:39:44.354Z,97688.30
2023-04-13T16:50:12.630Z,97696.27
2023-04-13T17:00:38.573Z,97698.19
2023-04-13T17:23:23.906Z,97721.75
2023-04-13T17:33:51.539Z,97733.08
2023-04-13T17:44:19.065Z,97738.30
2023-04-13T17:54:46.599Z,97749.48
2023-04-13T18:05:15.850Z,97757.95
2023-04-13T18:15:47.401Z,97765.37
2023-04-13T18:26:15.070Z,97769.34
2023-04-13T18:36:43.037Z,97773.84
2023-04-13T18:47:09.156Z,97776.70
2023-04-13T18:57:38.993Z,97779.06
2023-04-13T19:08:09.958Z,97779.73
2023-04-13T19:18:37.525Z,97788.13
2023-04-13T19:29:05.065Z,97783.50
2023-04-13T19:39:33.729Z,97781.74
2023-04-13T19:50:01.351Z,97788.23
2023-04-13T20:00:29.638Z,97790.94
2023-04-13T20:10:56.290Z,97788.67
2023-04-13T20:21:24.987Z,97786.52
2023-04-13T20:31:52.782Z,97784.73
2023-04-13T20:42:22.007Z,97782.83
2023-04-13T20:52:50.697Z,97783.88
2023-04-13T21:03:19.096Z,97784.94
2023-04-13T21:13:45.460Z,97772.33
2023-04-13T21:24:13.097Z,97762.77
2023-04-13T21:34:40.768Z,97760.14
2023-04-13T21:45:09.992Z,97748.15
2023-04-13T21:55:37.426Z,97747.19
2023-04-13T22:06:05.259Z,97749.98
2023-04-13T22:16:32.827Z,97749.74
2023-04-13T22:27:02.610Z,97740.71
2023-04-13T22:37:33.063Z,97728.40
2023-04-13T22:48:00.591Z,97726.40
2023-04-13T22:58:28.247Z,97717.94
2023-04-13T23:08:57.544Z,97711.55
2023-04-13T23:19:25.272Z,97707.06
2023-04-13T23:29:53.149Z,97700.79
2023-04-13T23:40:20.671Z,97689.32
2023-04-13T23:50:48.527Z,97672.27
